Time;durP1;ratioP1;P1;durP2;ratioP2;P2;SDS_P1;SDS_P2;PMS_P1;PMS_P2;Temp;Humidity;BMP_temperature;BMP_pressure;BME280_temperature;BME280_humidity;BME280_pressure;Samples;Min_cycle;Max_cycle;Signal;HPM_P1;HPM_P2
2023/07/16 00:01:35;;;;;;;5.83;2.30;;;17.70;99.90;;;;;;7277246;19;20209;-74
2023/07/16 00:04:01;;;;;;;12.30;2.60;;;17.90;99.90;;;;;;7278643;19;20189;-75
2023/07/16 00:06:27;;;;;;;9.87;2.40;;;17.90;99.90;;;;;;7277259;19;20217;-74
2023/07/16 00:08:52;;;;;;;11.40;2.67;;;17.90;99.90;;;;;;7275837;19;20668;-75
2023/07/16 00:11:18;;;;;;;12.07;2.53;;;17.80;99.90;;;;;;7277199;19;21096;-74
2023/07/16 00:13:46;;;;;;;9.60;2.50;;;17.70;99.90;;;;;;7296346;19;20297;-74
2023/07/16 00:16:13;;;;;;;12.03;2.77;;;17.60;99.90;;;;;;7277293;19;20276;-74
2023/07/16 00:18:42;;;;;;;10.13;2.57;;;17.50;99.90;;;;;;7276892;19;20252;-74
2023/07/16 00:21:08;;;;;;;11.17;2.90;;;17.50;99.90;;;;;;7275779;19;20192;-74
2023/07/16 00:23:33;;;;;;;10.50;2.80;;;17.50;99.90;;;;;;7277153;19;20662;-74
2023/07/16 00:25:59;;;;;;;11.43;2.70;;;17.50;99.90;;;;;;7276906;19;20677;-74
2023/07/16 00:28:25;;;;;;;8.53;2.40;;;17.60;99.90;;;;;;7274802;19;20666;-73
2023/07/16 00:30:50;;;;;;;12.57;2.43;;;17.60;99.90;;;;;;7277615;19;20263;-74
2023/07/16 00:33:16;;;;;;;11.20;2.37;;;17.50;99.90;;;;;;7285610;19;20180;-73
2023/07/16 00:35:49;;;;;;;11.50;2.97;;;17.50;99.90;;;;;;7293479;19;20185;-74
2023/07/16 00:38:18;;;;;;;16.80;2.57;;;17.50;99.90;;;;;;7277531;19;20669;-74
2023/07/16 00:40:44;;;;;;;12.53;2.53;;;17.50;99.90;;;;;;7276128;19;20180;-73
2023/07/16 00:43:10;;;;;;;13.53;2.13;;;17.50;99.90;;;;;;7275327;19;20587;-74
2023/07/16 00:45:38;;;;;;;8.57;2.27;;;17.60;99.90;;;;;;7274820;19;20181;-75
2023/07/16 00:48:06;;;;;;;10.20;2.47;;;17.60;99.90;;;;;;7281087;19;20248;-74
2023/07/16 00:50:39;;;;;;;13.53;2.30;;;17.70;99.90;;;;;;7283273;19;20193;-74
2023/07/16 00:53:05;;;;;;;15.07;2.80;;;17.80;99.90;;;;;;7284156;19;20247;-74
2023/07/16 00:55:32;;;;;;;10.13;2.50;;;17.70;99.90;;;;;;7281538;19;20731;-73
2023/07/16 00:58:04;;;;;;;10.43;2.40;;;17.70;99.90;;;;;;7283243;19;20184;-75
2023/07/16 01:00:40;;;;;;;10.67;2.70;;;17.70;99.90;;;;;;7282447;19;20652;-74
2023/07/16 01:03:08;;;;;;;12.53;2.90;;;17.60;99.90;;;;;;7283589;19;20217;-74
2023/07/16 01:05:48;;;;;;;12.13;2.90;;;17.70;99.90;;;;;;7282696;19;20190;-75
2023/07/16 01:08:17;;;;;;;10.27;2.70;;;17.70;99.90;;;;;;7281194;19;20188;-74
2023/07/16 01:10:44;;;;;;;9.70;2.47;;;17.70;99.90;;;;;;7283351;19;20217;-75
2023/07/16 01:13:10;;;;;;;9.67;2.80;;;17.70;99.90;;;;;;7282360;19;20296;-74
2023/07/16 01:15:36;;;;;;;7.90;2.60;;;17.70;99.90;;;;;;7280862;19;20194;-74
2023/07/16 01:18:03;;;;;;;11.23;2.90;;;17.70;99.90;;;;;;7282325;19;20263;-75
2023/07/16 01:20:28;;;;;;;10.97;3.00;;;17.60;99.90;;;;;;7281887;19;20209;-73
2023/07/16 01:23:08;;;;;;;8.70;2.33;;;17.60;99.90;;;;;;7282589;19;20209;-74
2023/07/16 01:25:56;;;;;;;10.63;2.90;;;17.60;99.90;;;;;;7281712;19;20275;-74
2023/07/16 01:28:43;;;;;;;10.83;2.90;;;17.70;99.90;;;;;;7178963;19;2007075;-74
2023/07/16 01:31:11;;;;;;;9.10;2.53;;;17.60;99.90;;;;;;7281228;19;20216;-74
2023/07/16 01:33:41;;;;;;;12.13;2.57;;;17.50;99.90;;;;;;7281290;19;20564;-74
2023/07/16 01:36:08;;;;;;;12.60;2.90;;;17.50;99.90;;;;;;7281778;19;20509;-76
2023/07/16 01:38:35;;;;;;;10.17;2.70;;;17.50;99.90;;;;;;7280490;19;20974;-74
2023/07/16 01:41:02;;;;;;;14.10;2.57;;;17.50;99.90;;;;;;7281608;19;20189;-74
2023/07/16 01:43:27;;;;;;;12.43;2.50;;;17.60;99.90;;;;;;7280957;19;20422;-73
2023/07/16 01:45:53;;;;;;;9.60;2.53;;;17.60;99.90;;;;;;7280797;19;20192;-74
2023/07/16 01:48:35;;;;;;;12.67;2.67;;;17.50;99.90;;;;;;7281552;19;20193;-74
2023/07/16 01:51:01;;;;;;;12.00;3.17;;;17.50;99.90;;;;;;7281550;19;20196;-74
2023/07/16 01:53:27;;;;;;;10.30;3.03;;;17.50;99.90;;;;;;7281170;19;20552;-74
2023/07/16 01:55:53;;;;;;;11.27;2.70;;;17.40;99.90;;;;;;7279513;19;20538;-73
2023/07/16 01:58:20;;;;;;;13.00;2.67;;;17.40;99.90;;;;;;7276843;19;20189;-74
2023/07/16 02:00:50;;;;;;;12.97;3.43;;;17.40;99.90;;;;;;7279257;19;20193;-73
2023/07/16 02:03:16;;;;;;;11.23;3.17;;;17.20;99.90;;;;;;7294178;19;20301;-74
2023/07/16 02:05:42;;;;;;;12.10;3.20;;;17.20;99.90;;;;;;7296925;19;20252;-74
2023/07/16 02:08:09;;;;;;;8.83;3.20;;;17.20;99.90;;;;;;7280528;19;20219;-73
2023/07/16 02:10:35;;;;;;;13.93;3.43;;;17.20;99.90;;;;;;7280562;19;20571;-72
2023/07/16 02:13:01;;;;;;;11.60;3.70;;;17.10;99.90;;;;;;7281758;19;20192;-72
2023/07/16 02:15:27;;;;;;;14.57;3.57;;;17.10;99.90;;;;;;7280449;19;20749;-73
2023/07/16 02:17:52;;;;;;;12.00;3.73;;;17.20;99.90;;;;;;7282399;19;20193;-73
2023/07/16 02:20:18;;;;;;;10.47;4.10;;;17.10;99.90;;;;;;7281346;19;20647;-74
2023/07/16 02:22:44;;;;;;;12.67;3.90;;;17.20;99.90;;;;;;7303760;19;20536;-75
2023/07/16 02:25:11;;;;;;;12.83;4.27;;;17.10;99.90;;;;;;7280605;19;20191;-74
2023/07/16 02:27:38;;;;;;;14.10;4.17;;;17.10;99.90;;;;;;7280523;19;20214;-75
2023/07/16 02:30:06;;;;;;;15.30;4.40;;;17.20;99.90;;;;;;7280551;19;20181;-74
2023/07/16 02:32:33;;;;;;;11.50;4.30;;;17.20;99.90;;;;;;7281745;19;20730;-75
2023/07/16 02:35:01;;;;;;;13.27;4.17;;;17.20;99.90;;;;;;7279479;19;20204;-74
2023/07/16 02:37:27;;;;;;;10.67;4.60;;;17.20;99.90;;;;;;7280825;19;20200;-74
2023/07/16 02:39:53;;;;;;;12.43;4.60;;;17.20;99.90;;;;;;7279088;19;20201;-75
2023/07/16 02:42:19;;;;;;;13.17;4.30;;;17.10;99.90;;;;;;7279253;19;20621;-74
2023/07/16 02:44:45;;;;;;;12.40;4.43;;;17.10;99.90;;;;;;7302349;19;20193;-75
2023/07/16 02:47:13;;;;;;;11.13;4.37;;;17.10;99.90;;;;;;7280529;19;20275;-75
2023/07/16 02:49:39;;;;;;;11.03;4.00;;;17.10;99.90;;;;;;7278746;19;20215;-75
2023/07/16 02:52:06;;;;;;;12.13;4.07;;;17.00;99.90;;;;;;7279764;19;23107;-75
2023/07/16 02:54:32;;;;;;;17.37;4.23;;;17.00;99.90;;;;;;7278999;19;20917;-74
2023/07/16 02:56:58;;;;;;;15.80;4.07;;;17.00;99.90;;;;;;7278461;19;20193;-73
2023/07/16 02:59:24;;;;;;;16.17;4.20;;;16.90;99.90;;;;;;7277164;19;20214;-74
2023/07/16 03:01:51;;;;;;;13.93;4.20;;;16.90;99.90;;;;;;7278592;19;20220;-74
2023/07/16 03:04:17;;;;;;;12.87;3.90;;;16.90;99.90;;;;;;7286004;19;20715;-73
2023/07/16 03:06:42;;;;;;;14.47;4.73;;;16.90;99.90;;;;;;7302653;19;20189;-73
2023/07/16 03:09:09;;;;;;;13.83;3.70;;;16.80;99.90;;;;;;7276266;19;20204;-74
2023/07/16 03:11:34;;;;;;;14.07;4.10;;;16.80;99.90;;;;;;7278443;19;20189;-74
2023/07/16 03:14:00;;;;;;;12.70;4.40;;;16.90;99.90;;;;;;7277696;19;20280;-74
2023/07/16 03:16:26;;;;;;;12.33;4.23;;;16.90;99.90;;;;;;7276781;19;20203;-74
2023/07/16 03:18:53;;;;;;;15.93;4.47;;;17.00;99.90;;;;;;7278458;19;20197;-74
2023/07/16 03:21:18;;;;;;;15.23;4.30;;;16.90;99.90;;;;;;7279159;19;20188;-74
2023/07/16 03:23:44;;;;;;;13.27;4.13;;;16.80;99.90;;;;;;7300203;19;20741;-74
2023/07/16 03:26:10;;;;;;;13.67;4.50;;;16.70;99.90;;;;;;7278652;19;21093;-74
2023/07/16 03:28:35;;;;;;;12.40;4.50;;;16.70;99.90;;;;;;7277847;19;20208;-73
2023/07/16 03:31:05;;;;;;;17.03;4.80;;;16.60;99.90;;;;;;7277198;19;20185;-73
2023/07/16 03:33:32;;;;;;;14.73;5.17;;;16.70;99.90;;;;;;7278855;19;20259;-74
2023/07/16 03:35:58;;;;;;;11.63;4.57;;;16.70;99.90;;;;;;7276670;19;20195;-74
2023/07/16 03:38:23;;;;;;;13.50;5.27;;;16.70;99.90;;;;;;7277715;19;20719;-74
2023/07/16 03:40:50;;;;;;;14.20;5.00;;;16.80;99.90;;;;;;7276968;19;20214;-74
2023/07/16 03:43:16;;;;;;;9.13;3.90;;;16.70;99.90;;;;;;7295538;19;20216;-74
2023/07/16 03:45:43;;;;;;;14.97;4.90;;;16.70;99.90;;;;;;7299267;19;20187;-73
2023/07/16 03:48:09;;;;;;;15.30;4.63;;;16.70;99.90;;;;;;7277460;19;20209;-74
2023/07/16 03:50:36;;;;;;;15.57;4.67;;;16.70;99.90;;;;;;7277835;19;20265;-74
2023/07/16 03:53:03;;;;;;;12.47;4.90;;;16.60;99.90;;;;;;7276977;19;20272;-74
2023/07/16 03:55:29;;;;;;;16.20;5.33;;;16.60;99.90;;;;;;7275614;19;20288;-74
2023/07/16 03:57:55;;;;;;;15.57;5.20;;;16.70;99.90;;;;;;7278277;19;20191;-74
2023/07/16 04:00:21;;;;;;;17.17;5.43;;;16.60;99.90;;;;;;7277048;19;20755;-72
2023/07/16 04:02:49;;;;;;;16.00;5.80;;;16.60;99.90;;;;;;7277455;19;20200;-74
2023/07/16 04:05:17;;;;;;;16.03;5.70;;;16.60;99.90;;;;;;7285374;19;20515;-74
2023/07/16 04:07:43;;;;;;;15.67;5.50;;;16.70;99.90;;;;;;7296306;19;20248;-74
2023/07/16 04:10:09;;;;;;;14.47;5.60;;;16.70;99.90;;;;;;7277810;19;20185;-73
2023/07/16 04:12:34;;;;;;;13.20;5.07;;;16.70;99.90;;;;;;7276749;19;20184;-75
2023/07/16 04:15:00;;;;;;;13.97;5.27;;;16.70;99.90;;;;;;7277879;19;20535;-74
2023/07/16 04:17:26;;;;;;;14.70;5.37;;;16.80;99.90;;;;;;7276678;19;20289;-74
2023/07/16 04:19:52;;;;;;;17.63;6.03;;;16.80;99.90;;;;;;7277124;19;20200;-75
2023/07/16 04:22:17;;;;;;;15.43;5.27;;;16.90;99.90;;;;;;7278524;19;20654;-75
2023/07/16 04:24:43;;;;;;;15.90;5.13;;;16.90;99.90;;;;;;7305847;19;20185;-74
2023/07/16 04:27:09;;;;;;;18.10;5.70;;;17.00;99.90;;;;;;7283669;19;20666;-74
2023/07/16 04:29:35;;;;;;;17.60;5.57;;;17.00;99.90;;;;;;7283872;19;20532;-74
2023/07/16 04:32:01;;;;;;;14.13;5.20;;;16.90;99.90;;;;;;7283607;19;20185;-74
2023/07/16 04:34:27;;;;;;;15.43;5.53;;;17.00;99.90;;;;;;7283230;19;20196;-74
2023/07/16 04:36:53;;;;;;;16.50;5.63;;;17.10;99.90;;;;;;7283605;19;20181;-74
2023/07/16 04:39:19;;;;;;;17.90;6.10;;;17.10;99.90;;;;;;7285504;19;20994;-75
2023/07/16 04:41:44;;;;;;;15.00;5.90;;;17.20;99.90;;;;;;7306525;19;20184;-74
2023/07/16 04:44:10;;;;;;;18.23;5.90;;;17.30;99.90;;;;;;7284839;19;20181;-78
2023/07/16 04:46:36;;;;;;;16.00;5.67;;;17.40;99.90;;;;;;7284746;19;20573;-79
2023/07/16 04:49:04;;;;;;;15.83;5.53;;;17.60;99.90;;;;;;7283862;19;20196;-78
2023/07/16 04:51:30;;;;;;;16.50;5.60;;;18.00;99.90;;;;;;7284397;19;20187;-75
2023/07/16 04:53:55;;;;;;;17.43;6.17;;;18.60;99.90;;;;;;7283647;19;20180;-75
2023/07/16 04:56:21;;;;;;;19.33;5.50;;;19.20;99.90;;;;;;7282515;19;20295;-74
2023/07/16 04:58:47;;;;;;;14.40;5.43;;;19.40;99.90;;;;;;7291008;19;20190;-74
2023/07/16 05:01:13;;;;;;;17.30;5.70;;;19.90;99.90;;;;;;7304603;19;20186;-78
2023/07/16 05:03:38;;;;;;;17.67;5.57;;;20.30;99.90;;;;;;7284929;19;20217;-79
2023/07/16 05:06:04;;;;;;;17.37;5.57;;;21.00;99.90;;;;;;7286740;19;20195;-79
2023/07/16 05:08:30;;;;;;;14.60;5.67;;;21.50;99.90;;;;;;7285274;19;20192;-75
2023/07/16 05:10:56;;;;;;;11.03;5.07;;;21.40;99.90;;;;;;7284173;19;20191;-75
2023/07/16 05:13:22;;;;;;;13.27;5.50;;;22.00;99.90;;;;;;7283780;19;20201;-74
2023/07/16 05:15:47;;;;;;;15.03;5.57;;;22.20;99.90;;;;;;7285461;19;20196;-78
2023/07/16 05:18:13;;;;;;;13.40;5.70;;;22.30;99.90;;;;;;7307285;19;20536;-78
2023/07/16 05:20:39;;;;;;;14.13;5.43;;;22.70;99.90;;;;;;7284047;19;20204;-78
2023/07/16 05:23:04;;;;;;;13.33;5.37;;;22.00;99.90;;;;;;7282841;19;20181;-78
2023/07/16 05:25:30;;;;;;;13.63;5.43;;;22.40;99.90;;;;;;7283781;19;20319;-79
2023/07/16 05:27:56;;;;;;;16.93;6.20;;;22.80;99.90;;;;;;7283867;19;20189;-79
2023/07/16 05:30:22;;;;;;;12.87;5.53;;;22.50;99.90;;;;;;7283132;19;20276;-77
2023/07/16 05:32:48;;;;;;;16.73;5.97;;;22.90;99.90;;;;;;7287007;19;20189;-78
2023/07/16 05:35:20;;;;;;;12.83;5.13;;;22.40;99.90;;;;;;7331828;19;20564;-77
2023/07/16 05:37:50;;;;;;;18.27;6.23;;;22.70;99.90;;;;;;7416832;19;20144;-78
2023/07/16 05:40:16;;;;;;;17.50;6.47;;;23.10;99.90;;;;;;7417384;19;20153;-74
2023/07/16 05:42:42;;;;;;;12.07;5.47;;;23.10;99.90;;;;;;7347054;19;20184;-74
2023/07/16 05:45:08;;;;;;;15.10;6.10;;;22.80;99.90;;;;;;7308364;19;20192;-73
2023/07/16 05:47:34;;;;;;;14.13;6.27;;;22.50;99.90;;;;;;7309044;19;20191;-75
2023/07/16 05:50:01;;;;;;;18.17;6.40;;;22.90;99.90;;;;;;7312670;19;20191;-77
2023/07/16 05:52:27;;;;;;;15.17;5.87;;;23.00;99.90;;;;;;7305424;19;20187;-75
2023/07/16 05:55:07;;;;;;;14.23;5.90;;;24.00;99.90;;;;;;7329557;19;20189;-76
2023/07/16 05:57:32;;;;;;;15.97;5.77;;;24.50;99.90;;;;;;7301709;19;20184;-78
2023/07/16 05:59:59;;;;;;;18.87;6.03;;;24.80;99.90;;;;;;7301032;19;20214;-75
2023/07/16 06:02:25;;;;;;;14.83;6.13;;;24.90;99.90;;;;;;7332645;19;20216;-74
2023/07/16 06:04:54;;;;;;;14.57;5.83;;;25.30;99.90;;;;;;7336920;19;20220;-77
2023/07/16 06:07:40;;;;;;;18.47;6.80;;;25.30;99.90;;;;;;7283704;19;20236;-75
2023/07/16 06:10:06;;;;;;;14.73;5.60;;;25.50;99.90;;;;;;7282181;19;20198;-79
2023/07/16 06:12:32;;;;;;;12.93;5.70;;;26.00;99.90;;;;;;7283247;19;20656;-78
2023/07/16 06:14:58;;;;;;;14.20;6.23;;;26.50;99.90;;;;;;7282424;19;20288;-77
2023/07/16 06:17:24;;;;;;;15.47;6.03;;;25.90;99.90;;;;;;7284263;19;20189;-79
2023/07/16 06:19:51;;;;;;;14.07;5.60;;;25.90;99.90;;;;;;7284214;19;20252;-74
2023/07/16 06:22:17;;;;;;;11.63;5.87;;;25.40;99.90;;;;;;7294758;19;20273;-78
2023/07/16 06:24:43;;;;;;;13.53;5.87;;;24.90;99.90;;;;;;7306184;19;20561;-78
2023/07/16 06:27:09;;;;;;;16.20;5.80;;;24.70;99.90;;;;;;7283483;19;20203;-79
2023/07/16 06:29:34;;;;;;;14.53;6.20;;;24.80;99.90;;;;;;7280397;19;20198;-77
2023/07/16 06:32:00;;;;;;;15.83;5.93;;;25.20;99.90;;;;;;7283513;19;20199;-78
2023/07/16 06:34:26;;;;;;;13.65;5.55;;;25.60;99.90;;;;;;7283182;19;20193;-78
2023/07/16 06:36:52;;;;;;;12.40;5.32;;;25.40;99.90;;;;;;7283770;19;20188;-78
2023/07/16 06:39:18;;;;;;;16.88;6.35;;;25.90;99.90;;;;;;7287234;19;20232;-78
2023/07/16 06:41:44;;;;;;;15.02;6.00;;;25.70;99.90;;;;;;7304380;19;20193;-74
2023/07/16 06:44:10;;;;;;;14.05;5.72;;;26.40;99.90;;;;;;7281103;19;20199;-74
2023/07/16 06:46:35;;;;;;;11.93;5.35;;;26.80;99.90;;;;;;7283219;19;20590;-78
2023/07/16 06:49:01;;;;;;;13.30;5.35;;;26.90;99.90;;;;;;7282534;19;20208;-78
2023/07/16 06:51:29;;;;;;;13.45;5.70;;;27.00;99.90;;;;;;7283632;19;20212;-79
2023/07/16 06:53:55;;;;;;;14.63;5.88;;;27.00;99.90;;;;;;7281902;19;20185;-74
2023/07/16 06:56:20;;;;;;;13.20;5.75;;;27.10;99.90;;;;;;7279622;19;20199;-74
2023/07/16 06:58:46;;;;;;;15.32;5.90;;;26.70;99.90;;;;;;7301277;19;20615;-75
2023/07/16 07:01:12;;;;;;;15.07;5.47;;;25.90;99.90;;;;;;7290629;19;20208;-78
2023/07/16 07:03:37;;;;;;;12.73;5.63;;;26.40;99.90;;;;;;7282968;19;20562;-75
2023/07/16 07:06:03;;;;;;;13.95;5.65;;;26.40;99.90;;;;;;7282956;19;20202;-78
2023/07/16 07:08:29;;;;;;;12.98;5.82;;;26.90;99.90;;;;;;7279944;19;20181;-78
2023/07/16 07:10:55;;;;;;;15.00;5.75;;;28.00;99.90;;;;;;7280997;19;20533;-78
2023/07/16 07:13:21;;;;;;;12.65;5.57;;;28.00;99.90;;;;;;7282258;19;20180;-78
2023/07/16 07:15:47;;;;;;;13.70;5.95;;;28.10;99.90;;;;;;7295461;19;20185;-77
2023/07/16 07:18:13;;;;;;;13.45;6.10;;;28.00;99.90;;;;;;7297153;19;20185;-74
2023/07/16 07:20:40;;;;;;;12.52;5.80;;;27.90;99.90;;;;;;7282401;19;20214;-74
2023/07/16 07:23:06;;;;;;;13.32;6.15;;;29.10;99.90;;;;;;7280392;19;20189;-74
2023/07/16 07:25:31;;;;;;;14.30;6.00;;;28.00;99.90;;;;;;7280245;19;20536;-74
2023/07/16 07:27:57;;;;;;;15.00;6.00;;;27.10;99.90;;;;;;7279586;19;20228;-74
2023/07/16 07:30:24;;;;;;;14.52;6.13;;;26.60;99.90;;;;;;7279956;19;20274;-73
2023/07/16 07:32:50;;;;;;;14.45;6.13;;;27.40;99.90;;;;;;7279219;19;20801;-74
2023/07/16 07:35:15;;;;;;;12.88;6.07;;;28.40;99.90;;;;;;7302755;19;20690;-78
2023/07/16 07:37:41;;;;;;;14.57;6.30;;;27.90;99.90;;;;;;7282725;19;20189;-79
2023/07/16 07:40:07;;;;;;;17.02;6.45;;;28.00;99.90;;;;;;7281939;19;20191;-78
2023/07/16 07:42:33;;;;;;;22.02;8.77;;;27.70;99.90;;;;;;7280916;19;20197;-77
2023/07/16 07:44:59;;;;;;;14.98;5.80;;;28.40;99.90;;;;;;7280585;19;20191;-78
2023/07/16 07:47:24;;;;;;;15.55;7.40;;;28.60;99.90;;;;;;7279987;19;20255;-77
2023/07/16 07:49:52;;;;;;;16.95;6.30;;;27.10;99.90;;;;;;7281417;19;20192;-74
2023/07/16 07:52:18;;;;;;;16.35;7.90;;;26.90;99.90;;;;;;7281064;19;20189;-74
2023/07/16 07:54:44;;;;;;;13.68;6.53;;;26.80;99.90;;;;;;7300939;19;20231;-74
2023/07/16 07:57:10;;;;;;;18.33;6.40;;;28.10;99.90;;;;;;7280426;19;20541;-74
2023/07/16 07:59:35;;;;;;;14.07;6.32;;;29.20;99.90;;;;;;7285044;19;20821;-74
2023/07/16 08:02:04;;;;;;;14.20;6.35;;;30.40;99.90;;;;;;7283658;19;20662;-74
2023/07/16 08:04:31;;;;;;;11.82;5.55;;;31.40;99.10;;;;;;7286275;19;20192;-75
2023/07/16 08:06:59;;;;;;;12.85;5.35;;;31.60;95.90;;;;;;7285246;19;20216;-75
2023/07/16 08:09:27;;;;;;;13.82;5.72;;;30.80;97.50;;;;;;7331511;19;20185;-75
2023/07/16 08:11:53;;;;;;;12.00;4.70;;;32.10;96.00;;;;;;7399887;19;20130;-77
2023/07/16 08:14:18;;;;;;;15.02;4.93;;;30.60;94.50;;;;;;7412143;19;20233;-75
2023/07/16 08:16:47;;;;;;;13.73;4.88;;;30.90;95.50;;;;;;7417807;19;20626;-79
2023/07/16 08:19:15;;;;;;;10.68;4.78;;;31.80;94.10;;;;;;7418385;19;20166;-74
2023/07/16 08:21:41;;;;;;;11.98;4.80;;;30.90;93.10;;;;;;7299457;19;20181;-78
2023/07/16 08:24:07;;;;;;;12.30;4.50;;;31.00;94.00;;;;;;7288663;19;20221;-78
2023/07/16 08:26:33;;;;;;;10.80;4.38;;;31.30;92.80;;;;;;7289905;19;20193;-79
2023/07/16 08:29:01;;;;;;;11.32;4.68;;;31.00;92.40;;;;;;7278102;19;20181;-79
2023/07/16 08:31:26;;;;;;;11.02;4.35;;;30.60;92.90;;;;;;7286551;19;20517;-78
2023/07/16 08:33:52;;;;;;;8.52;4.20;;;30.30;92.60;;;;;;7286094;19;20208;-78
2023/07/16 08:36:18;;;;;;;10.82;4.20;;;30.30;92.60;;;;;;7290442;19;20665;-77
2023/07/16 08:38:43;;;;;;;9.82;4.70;;;31.60;91.60;;;;;;7305608;19;20226;-79
2023/07/16 08:41:09;;;;;;;11.25;4.53;;;32.00;91.70;;;;;;7285388;19;20196;-79
2023/07/16 08:43:35;;;;;;;10.90;4.85;;;33.50;90.60;;;;;;7285629;19;20539;-78
2023/07/16 08:46:01;;;;;;;11.30;4.60;;;34.00;89.10;;;;;;7284519;19;20185;-79
2023/07/16 08:48:28;;;;;;;11.27;4.47;;;32.50;85.00;;;;;;7283998;19;20902;-77
2023/07/16 08:50:57;;;;;;;14.70;6.70;;;30.70;89.00;;;;;;7283733;19;20615;-78
2023/07/16 08:53:22;;;;;;;12.80;6.63;;;29.40;92.10;;;;;;7283838;19;20184;-78
2023/07/16 08:55:48;;;;;;;9.43;4.40;;;29.30;92.90;;;;;;7286505;19;20615;-77
2023/07/16 08:58:14;;;;;;;11.68;4.82;;;28.80;92.70;;;;;;7306254;19;20185;-78
2023/07/16 09:00:44;;;;;;;11.82;4.57;;;28.60;93.70;;;;;;7284380;19;20281;-78
2023/07/16 09:03:16;;;;;;;10.85;4.78;;;28.10;94.20;;;;;;7284091;19;20565;-78
2023/07/16 09:05:43;;;;;;;10.75;5.00;;;28.00;96.10;;;;;;7282922;19;20668;-78
2023/07/16 09:08:09;;;;;;;11.77;4.70;;;28.40;96.70;;;;;;7282995;19;20217;-75
2023/07/16 09:10:36;;;;;;;11.35;3.95;;;28.80;95.50;;;;;;7284106;19;20659;-74
2023/07/16 09:13:02;;;;;;;9.70;4.22;;;28.40;94.60;;;;;;7282861;19;20248;-74
2023/07/16 09:15:29;;;;;;;13.18;4.25;;;27.70;95.40;;;;;;7283504;19;20496;-74
2023/07/16 09:17:55;;;;;;;15.40;4.47;;;27.50;95.80;;;;;;7284083;19;20185;-74
2023/07/16 09:20:23;;;;;;;13.05;4.38;;;26.70;97.40;;;;;;7280685;19;20193;-74
2023/07/16 09:22:50;;;;;;;12.00;5.05;;;25.90;98.60;;;;;;7281901;19;20232;-73
2023/07/16 09:25:16;;;;;;;15.63;4.90;;;25.30;99.90;;;;;;7303565;19;20185;-74
2023/07/16 09:27:42;;;;;;;11.13;4.28;;;25.30;99.90;;;;;;7282726;19;20641;-74
2023/07/16 09:30:15;;;;;;;11.95;5.30;;;25.30;99.90;;;;;;7283331;19;20194;-74
2023/07/16 09:32:41;;;;;;;14.35;4.70;;;25.10;99.90;;;;;;7283597;19;20194;-73
2023/07/16 09:35:11;;;;;;;12.00;4.60;;;25.20;99.90;;;;;;7280999;19;20201;-74
2023/07/16 09:37:38;;;;;;;15.00;4.88;;;25.00;99.90;;;;;;7283155;19;20185;-74
2023/07/16 09:40:09;;;;;;;13.25;5.28;;;25.20;99.90;;;;;;7281792;19;20184;-74
2023/07/16 09:42:40;;;;;;;10.98;4.80;;;25.60;99.90;;;;;;7281502;19;20193;-74
2023/07/16 09:45:10;;;;;;;9.90;4.97;;;25.80;99.90;;;;;;7283862;19;20245;-74
2023/07/16 09:47:36;;;;;;;13.88;5.22;;;26.60;99.90;;;;;;7280590;19;20628;-74
2023/07/16 09:50:04;;;;;;;10.68;4.50;;;27.30;99.90;;;;;;7281864;19;20293;-74
2023/07/16 09:52:32;;;;;;;13.15;4.65;;;27.80;99.90;;;;;;7282565;19;20185;-73
2023/07/16 09:55:04;;;;;;;12.50;4.70;;;28.70;99.50;;;;;;7282104;19;20189;-74
2023/07/16 09:57:42;;;;;;;11.35;4.32;;;29.90;98.70;;;;;;7282264;19;20185;-74
2023/07/16 10:00:13;;;;;;;10.20;4.10;;;29.30;96.30;;;;;;7281995;19;20295;-75
2023/07/16 10:02:40;;;;;;;10.70;4.20;;;28.40;96.50;;;;;;7280386;19;20220;-75
2023/07/16 10:05:35;;;;;;;9.90;4.00;;;27.60;97.80;;;;;;7281278;19;20595;-74
2023/07/16 10:08:01;;;;;;;9.32;4.13;;;26.70;99.10;;;;;;7179581;19;2004573;-75
2023/07/16 10:10:42;;;;;;;11.27;4.35;;;26.20;99.90;;;;;;7280127;19;20219;-73
2023/07/16 10:13:11;;;;;;;13.80;4.88;;;25.70;99.90;;;;;;7282693;19;20245;-74
2023/07/16 10:15:36;;;;;;;11.25;4.13;;;25.20;99.90;;;;;;7279807;19;20316;-73
2023/07/16 10:18:02;;;;;;;14.73;4.60;;;25.00;99.90;;;;;;7283099;19;20268;-74
2023/07/16 10:20:34;;;;;;;12.90;4.15;;;24.80;99.90;;;;;;7279451;19;20200;-74
2023/07/16 10:23:13;;;;;;;11.60;4.50;;;24.70;99.90;;;;;;7279919;19;20217;-75
2023/07/16 10:25:40;;;;;;;12.85;4.78;;;24.80;99.90;;;;;;7281290;19;20188;-74
2023/07/16 10:28:06;;;;;;;12.50;4.70;;;24.80;99.90;;;;;;7280700;19;20197;-74
2023/07/16 10:30:33;;;;;;;11.37;4.60;;;24.50;99.90;;;;;;7281136;19;20181;-75
2023/07/16 10:33:02;;;;;;;14.87;4.47;;;24.30;99.90;;;;;;7280877;19;20193;-74
2023/07/16 10:35:27;;;;;;;10.93;4.60;;;24.20;99.90;;;;;;7280491;19;20189;-75
2023/07/16 10:37:54;;;;;;;14.53;4.73;;;24.20;99.90;;;;;;7281189;19;20759;-75
2023/07/16 10:40:20;;;;;;;12.30;4.03;;;24.20;99.90;;;;;;7280291;19;20193;-75
2023/07/16 10:42:48;;;;;;;12.98;4.70;;;24.20;99.90;;;;;;7302632;19;20196;-73
2023/07/16 10:45:14;;;;;;;12.00;4.50;;;24.50;99.90;;;;;;7282748;19;20181;-74
2023/07/16 10:47:50;;;;;;;12.80;4.70;;;24.50;99.90;;;;;;7279608;19;20536;-74
2023/07/16 10:50:18;;;;;;;13.18;4.68;;;24.70;99.90;;;;;;7281008;19;20201;-74
2023/07/16 10:52:44;;;;;;;14.63;5.70;;;24.80;99.90;;;;;;7280653;19;20605;-74
2023/07/16 10:55:09;;;;;;;13.38;4.78;;;25.00;99.90;;;;;;7278435;19;20201;-74
2023/07/16 10:57:35;;;;;;;14.18;4.45;;;25.20;99.90;;;;;;7279698;19;20197;-74
2023/07/16 11:00:01;;;;;;;10.85;5.22;;;25.20;99.90;;;;;;7280202;19;20257;-75
2023/07/16 11:02:27;;;;;;;14.38;4.40;;;25.30;99.90;;;;;;7278963;19;20188;-75
2023/07/16 11:04:53;;;;;;;12.70;4.80;;;25.40;99.90;;;;;;7279898;19;20181;-74
2023/07/16 11:07:20;;;;;;;11.68;4.30;;;25.80;99.90;;;;;;7280240;19;20266;-74
2023/07/16 11:09:50;;;;;;;12.05;4.28;;;25.90;99.90;;;;;;7285186;19;20713;-74
2023/07/16 11:12:19;;;;;;;11.25;4.40;;;25.70;99.90;;;;;;7302535;19;20184;-74
2023/07/16 11:14:50;;;;;;;11.52;4.65;;;25.80;99.90;;;;;;7281560;19;20184;-75
2023/07/16 11:17:16;;;;;;;10.85;3.83;;;25.80;99.90;;;;;;7280513;19;20727;-74
2023/07/16 11:19:45;;;;;;;10.48;4.05;;;25.90;99.90;;;;;;7280774;19;20284;-74
2023/07/16 11:22:11;;;;;;;10.38;4.32;;;26.00;99.90;;;;;;7281791;19;20256;-75
2023/07/16 11:24:46;;;;;;;14.80;4.60;;;26.00;99.90;;;;;;7281313;19;20232;-75
2023/07/16 11:27:26;;;;;;;12.68;4.35;;;25.90;99.90;;;;;;7281814;19;20188;-75
2023/07/16 11:29:54;;;;;;;11.80;4.93;;;25.20;99.90;;;;;;7176878;19;2004810;-74
2023/07/16 11:32:37;;;;;;;12.32;4.97;;;25.00;99.90;;;;;;7278821;19;20264;-74
2023/07/16 11:35:05;;;;;;;12.90;4.77;;;24.40;99.90;;;;;;7278911;19;20208;-74
2023/07/16 11:37:32;;;;;;;16.27;5.23;;;24.00;99.90;;;;;;7279846;19;20263;-75
2023/07/16 11:40:04;;;;;;;12.27;5.00;;;24.40;99.90;;;;;;7279989;19;20193;-74
2023/07/16 11:42:37;;;;;;;13.70;4.63;;;25.00;99.90;;;;;;7278294;19;20193;-74
2023/07/16 11:45:04;;;;;;;8.73;4.25;;;26.80;99.90;;;;;;7279136;19;20671;-75
2023/07/16 11:47:31;;;;;;;9.70;4.22;;;28.40;99.90;;;;;;7279359;19;20645;-74
2023/07/16 11:49:57;;;;;;;10.75;4.22;;;29.80;99.90;;;;;;7278798;19;20185;-74
2023/07/16 11:52:26;;;;;;;11.32;4.43;;;30.70;99.90;;;;;;7279135;19;20192;-74
2023/07/16 11:54:52;;;;;;;11.95;4.28;;;31.90;99.90;;;;;;7282304;19;20189;-74
2023/07/16 11:57:18;;;;;;;10.57;3.83;;;33.40;99.90;;;;;;7285064;19;20188;-73
2023/07/16 11:59:44;;;;;;;10.43;3.88;;;34.00;98.00;;;;;;7301406;19;20201;-74
2023/07/16 12:02:10;;;;;;;11.00;3.97;;;33.40;95.40;;;;;;7278689;19;20739;-73
2023/07/16 12:04:36;;;;;;;9.32;3.80;;;33.00;94.80;;;;;;7278917;19;20192;-75
2023/07/16 12:07:02;;;;;;;8.90;3.75;;;32.20;94.20;;;;;;7275791;19;20184;-74
2023/07/16 12:09:28;;;;;;;9.02;3.30;;;31.70;94.00;;;;;;7276277;19;21009;-75
2023/07/16 12:11:54;;;;;;;9.07;3.60;;;32.00;94.40;;;;;;7278923;19;20256;-75
2023/07/16 12:14:19;;;;;;;10.05;3.72;;;31.90;93.10;;;;;;7279635;19;20525;-74
2023/07/16 12:16:45;;;;;;;9.50;3.20;;;32.00;92.30;;;;;;7299392;19;20697;-74
2023/07/16 12:19:11;;;;;;;9.05;3.58;;;31.30;94.10;;;;;;7278613;19;20189;-74
2023/07/16 12:21:37;;;;;;;10.18;3.75;;;30.90;93.10;;;;;;7277561;19;20206;-74
2023/07/16 12:24:03;;;;;;;10.30;3.95;;;30.50;93.70;;;;;;7277442;19;20204;-74
2023/07/16 12:26:28;;;;;;;9.95;3.58;;;29.90;93.80;;;;;;7277677;19;20192;-74
2023/07/16 12:28:55;;;;;;;10.77;3.42;;;30.10;93.70;;;;;;7278915;19;20196;-74
2023/07/16 12:31:20;;;;;;;10.20;3.53;;;29.90;95.60;;;;;;7277777;19;20191;-74
2023/07/16 12:33:47;;;;;;;11.05;3.80;;;29.90;94.70;;;;;;7299898;19;20189;-74
2023/07/16 12:36:13;;;;;;;8.68;3.60;;;29.50;94.60;;;;;;7276034;19;20202;-74
2023/07/16 12:38:39;;;;;;;9.55;4.00;;;28.80;96.30;;;;;;7277237;19;20271;-75